createdAt,value
2018-07-15T00:01:19.238Z,10.20
2018-07-15T00:03:49.011Z,10.47
2018-07-15T00:06:17.727Z,9.53
2018-07-15T00:08:46.440Z,9.97
2018-07-15T00:11:15.315Z,9.50
2018-07-15T00:13:44.088Z,9.87
2018-07-15T00:16:12.694Z,11.00
2018-07-15T00:18:41.608Z,11.23
2018-07-15T00:21:10.262Z,10.10
2018-07-15T00:23:38.875Z,10.23
2018-07-15T00:26:07.560Z,11.30
2018-07-15T00:28:36.117Z,12.03
2018-07-15T00:31:04.677Z,11.00
2018-07-15T00:33:33.349Z,10.73
2018-07-15T00:36:01.896Z,11.10
2018-07-15T00:38:30.663Z,11.53
2018-07-15T00:40:59.312Z,12.37
2018-07-15T00:43:27.830Z,12.37
2018-07-15T00:45:56.414Z,12.67
2018-07-15T00:48:25.155Z,11.60
2018-07-15T00:50:53.887Z,11.90
2018-07-15T00:53:22.644Z,13.10
2018-07-15T00:55:51.248Z,13.37
2018-07-15T00:58:19.926Z,13.80
2018-07-15T01:00:53.807Z,14.13
2018-07-15T01:03:22.464Z,14.00
2018-07-15T01:05:50.974Z,13.70
2018-07-15T01:08:19.702Z,14.13
2018-07-15T01:10:48.381Z,12.97
2018-07-15T01:13:17.105Z,12.60
2018-07-15T01:15:45.676Z,12.60
2018-07-15T01:18:14.301Z,13.70
2018-07-15T01:20:43.054Z,12.63
2018-07-15T01:23:12.160Z,12.43
2018-07-15T01:25:40.823Z,12.40
2018-07-15T01:28:09.642Z,11.67
2018-07-15T01:30:38.385Z,11.87
2018-07-15T01:33:07.516Z,11.27
2018-07-15T01:35:36.095Z,11.63
2018-07-15T01:38:04.749Z,11.97
2018-07-15T01:40:33.393Z,11.60
2018-07-15T01:43:02.007Z,11.33
2018-07-15T01:45:30.535Z,10.90
2018-07-15T01:47:59.062Z,11.23
2018-07-15T01:50:27.799Z,11.20
2018-07-15T01:52:56.452Z,10.80
2018-07-15T01:55:25.086Z,10.50
2018-07-15T01:57:53.741Z,11.47
2018-07-15T02:00:22.425Z,11.37
2018-07-15T02:02:51.003Z,11.10
2018-07-15T02:05:19.664Z,11.40
2018-07-15T02:07:48.327Z,11.57
2018-07-15T02:10:16.947Z,11.30
2018-07-15T02:12:45.632Z,11.23
2018-07-15T02:15:14.283Z,11.33
2018-07-15T02:17:42.905Z,11.57
2018-07-15T02:20:11.485Z,11.27
2018-07-15T02:22:40.294Z,11.30
2018-07-15T02:25:08.857Z,10.67
2018-07-15T02:27:37.486Z,11.37
2018-07-15T02:30:06.137Z,11.03
2018-07-15T02:32:34.823Z,12.03
2018-07-15T02:35:03.409Z,11.40
2018-07-15T02:37:32.214Z,11.07
2018-07-15T02:40:00.836Z,12.37
2018-07-15T02:42:29.471Z,12.63
2018-07-15T02:44:58.042Z,11.93
2018-07-15T02:47:26.704Z,12.47
2018-07-15T02:49:55.251Z,12.10
2018-07-15T02:52:23.914Z,12.47
2018-07-15T02:54:52.610Z,12.53
2018-07-15T02:57:21.238Z,12.57
2018-07-15T02:59:49.831Z,12.83
2018-07-15T03:02:18.463Z,12.10
2018-07-15T03:04:47.165Z,12.83
2018-07-15T03:07:15.754Z,12.20
2018-07-15T03:09:44.423Z,13.47
2018-07-15T03:12:13.166Z,12.50
2018-07-15T03:14:41.785Z,13.63
2018-07-15T03:17:10.460Z,13.33
2018-07-15T03:19:39.113Z,13.30
2018-07-15T03:22:08.247Z,12.00
2018-07-15T03:24:37.014Z,14.20
2018-07-15T03:27:05.685Z,13.97
2018-07-15T03:29:34.369Z,12.67
2018-07-15T03:32:03.099Z,13.10
2018-07-15T03:34:31.898Z,12.80
2018-07-15T03:37:00.556Z,11.63
2018-07-15T03:39:29.100Z,13.87
2018-07-15T03:41:57.753Z,13.57
2018-07-15T03:44:26.386Z,13.33
2018-07-15T03:46:55.025Z,13.50
2018-07-15T03:49:23.675Z,13.50
2018-07-15T03:51:52.242Z,14.37
2018-07-15T03:54:20.924Z,13.57
2018-07-15T03:56:49.559Z,13.10
2018-07-15T03:59:24.678Z,13.03
2018-07-15T04:01:53.302Z,13.50
2018-07-15T04:04:21.970Z,14.33
2018-07-15T04:06:50.784Z,14.93
2018-07-15T04:09:19.461Z,13.07
2018-07-15T04:11:48.096Z,13.40
2018-07-15T04:14:16.706Z,12.73
2018-07-15T04:16:45.393Z,13.83
2018-07-15T04:19:14.130Z,13.50
2018-07-15T04:21:42.818Z,13.60
2018-07-15T04:24:11.423Z,13.10
2018-07-15T04:26:40.045Z,12.73
2018-07-15T04:29:08.692Z,13.30
2018-07-15T04:31:37.188Z,12.70
2018-07-15T04:34:05.917Z,12.67
2018-07-15T04:36:34.581Z,13.27
2018-07-15T04:39:03.525Z,12.60
2018-07-15T04:41:32.049Z,12.40
2018-07-15T04:44:00.610Z,12.90
2018-07-15T04:46:29.183Z,12.20
2018-07-15T04:48:57.838Z,12.07
2018-07-15T04:51:26.431Z,12.43
2018-07-15T04:53:54.939Z,12.00
2018-07-15T04:56:23.563Z,11.77
2018-07-15T04:58:52.244Z,11.73
2018-07-15T05:01:21.062Z,12.70
2018-07-15T05:03:50.036Z,13.07
2018-07-15T05:06:19.225Z,12.40
2018-07-15T05:08:47.830Z,12.07
2018-07-15T05:11:16.509Z,12.57
2018-07-15T05:13:45.168Z,12.03
2018-07-15T05:16:13.805Z,12.47
2018-07-15T05:18:42.354Z,12.67
2018-07-15T05:21:11.005Z,11.33
2018-07-15T05:23:39.632Z,11.60
2018-07-15T05:26:08.335Z,11.50
2018-07-15T05:28:37.015Z,10.73
2018-07-15T05:31:05.722Z,10.70
2018-07-15T05:33:34.291Z,11.40
2018-07-15T05:36:03.015Z,10.93
2018-07-15T05:38:32.820Z,10.87
2018-07-15T05:41:01.455Z,10.50
2018-07-15T05:43:30.159Z,10.90
2018-07-15T05:45:58.727Z,11.13
2018-07-15T05:48:27.348Z,10.07
2018-07-15T05:50:55.913Z,11.20
2018-07-15T05:53:24.590Z,9.37
2018-07-15T05:55:53.178Z,10.00
2018-07-15T05:58:21.784Z,9.40
2018-07-15T06:00:50.359Z,10.20
2018-07-15T06:03:19.016Z,9.70
2018-07-15T06:05:47.727Z,9.97
2018-07-15T06:08:16.344Z,9.80
2018-07-15T06:10:45.098Z,9.63
2018-07-15T06:13:13.640Z,9.60
2018-07-15T06:15:42.259Z,9.43
2018-07-15T06:18:13.971Z,10.40
2018-07-15T06:20:42.492Z,9.70
2018-07-15T06:23:11.077Z,9.27
2018-07-15T06:25:39.606Z,9.43
2018-07-15T06:28:08.462Z,8.83
2018-07-15T06:30:37.578Z,9.10
2018-07-15T06:33:06.590Z,9.63
2018-07-15T06:35:35.228Z,9.00
2018-07-15T06:38:04.052Z,8.40
2018-07-15T06:40:32.662Z,8.80
2018-07-15T06:43:01.242Z,8.75
2018-07-15T06:45:29.904Z,8.98
2018-07-15T06:47:58.498Z,8.90
2018-07-15T06:50:27.147Z,8.38
2018-07-15T06:52:55.714Z,9.38
2018-07-15T06:55:24.451Z,7.92
2018-07-15T06:57:53.034Z,8.48
2018-07-15T07:00:21.619Z,8.18
2018-07-15T07:02:50.259Z,8.50
2018-07-15T07:05:19.041Z,7.72
2018-07-15T07:07:47.823Z,8.18
2018-07-15T07:10:16.328Z,8.05
2018-07-15T07:12:44.940Z,8.25
2018-07-15T07:15:13.527Z,8.20
2018-07-15T07:17:42.062Z,8.95
2018-07-15T07:20:10.644Z,7.90
2018-07-15T07:22:39.250Z,8.85
2018-07-15T07:25:07.749Z,8.45
2018-07-15T07:27:36.344Z,8.48
2018-07-15T07:30:05.018Z,8.60
2018-07-15T07:32:33.745Z,8.55
2018-07-15T07:35:02.423Z,8.15
2018-07-15T07:37:31.008Z,7.90
2018-07-15T07:39:59.693Z,8.30
2018-07-15T07:42:28.287Z,8.08
2018-07-15T07:44:57.058Z,9.20
2018-07-15T07:47:25.708Z,8.85
2018-07-15T07:49:54.366Z,8.25
2018-07-15T07:52:23.043Z,8.60
2018-07-15T07:54:51.852Z,8.40
2018-07-15T07:57:20.469Z,7.60
2018-07-15T07:59:48.996Z,8.50
2018-07-15T08:02:17.722Z,7.78
2018-07-15T08:04:46.375Z,8.38
2018-07-15T08:07:15.187Z,7.75
2018-07-15T08:09:43.812Z,8.38
2018-07-15T08:12:12.536Z,7.72
2018-07-15T08:14:41.308Z,7.87
2018-07-15T08:17:09.919Z,8.58
2018-07-15T08:19:38.640Z,7.92
2018-07-15T08:22:07.491Z,15.03
2018-07-15T08:24:36.162Z,8.15
2018-07-15T08:27:05.964Z,8.68
2018-07-15T08:29:34.603Z,9.30
2018-07-15T08:32:03.287Z,7.55
2018-07-15T08:34:32.074Z,7.97
2018-07-15T08:37:00.622Z,9.38
2018-07-15T08:39:29.219Z,7.67
2018-07-15T08:41:59.024Z,8.40
2018-07-15T08:44:27.565Z,7.97
2018-07-15T08:46:56.344Z,7.78
2018-07-15T08:49:25.011Z,8.28
2018-07-15T08:51:53.798Z,7.80
2018-07-15T08:54:22.558Z,8.33
2018-07-15T08:56:51.233Z,8.45
2018-07-15T08:59:20.614Z,8.83
2018-07-15T09:01:49.350Z,8.43
2018-07-15T09:04:17.999Z,8.25
2018-07-15T09:06:46.562Z,7.78
2018-07-15T09:09:15.454Z,8.70
2018-07-15T09:11:44.581Z,9.15
2018-07-15T09:14:13.256Z,8.40
2018-07-15T09:16:42.020Z,8.65
2018-07-15T09:19:10.696Z,8.50
2018-07-15T09:21:39.342Z,8.38
2018-07-15T09:24:08.014Z,8.30
2018-07-15T09:26:36.846Z,8.43
2018-07-15T09:29:05.703Z,7.22
2018-07-15T09:31:34.905Z,9.08
2018-07-15T09:34:03.471Z,8.48
2018-07-15T09:36:32.218Z,8.63
2018-07-15T09:39:00.881Z,7.97
2018-07-15T09:41:29.583Z,7.67
2018-07-15T09:43:58.469Z,8.53
2018-07-15T09:46:27.306Z,8.43
2018-07-15T09:48:56.020Z,8.40
2018-07-15T09:51:24.629Z,8.08
2018-07-15T09:53:53.283Z,8.03
2018-07-15T09:56:25.514Z,8.43
2018-07-15T09:58:54.755Z,7.67
2018-07-15T10:01:23.819Z,8.48
2018-07-15T10:03:52.891Z,8.48
2018-07-15T10:06:21.510Z,7.37
2018-07-15T10:08:50.134Z,7.83
2018-07-15T10:11:18.818Z,8.35
2018-07-15T10:13:47.483Z,8.70
2018-07-15T10:16:16.140Z,8.88
2018-07-15T10:18:44.745Z,8.48
2018-07-15T10:21:13.363Z,8.15
2018-07-15T10:23:41.954Z,7.37
2018-07-15T10:26:10.613Z,7.87
2018-07-15T10:28:39.337Z,8.00
2018-07-15T10:31:08.021Z,7.25
2018-07-15T10:33:36.652Z,7.37
2018-07-15T10:36:05.345Z,7.10
2018-07-15T10:38:33.951Z,7.60
2018-07-15T10:41:02.687Z,8.20
2018-07-15T10:43:31.355Z,7.62
2018-07-15T10:46:00.081Z,7.03
2018-07-15T10:48:28.696Z,7.17
2018-07-15T10:50:57.266Z,7.45
2018-07-15T10:53:25.984Z,7.58
2018-07-15T10:55:54.944Z,6.87
2018-07-15T10:58:23.813Z,7.22
2018-07-15T11:00:52.484Z,7.33
2018-07-15T11:03:21.239Z,6.95
2018-07-15T11:05:49.830Z,7.05
2018-07-15T11:08:18.431Z,6.85
2018-07-15T11:10:47.337Z,7.58
2018-07-15T11:13:16.158Z,7.30
2018-07-15T11:15:45.123Z,7.10
2018-07-15T11:18:13.816Z,7.40
2018-07-15T11:20:42.418Z,7.08
2018-07-15T11:23:11.083Z,6.65
2018-07-15T11:25:39.740Z,7.50
2018-07-15T11:28:08.396Z,7.12
2018-07-15T11:30:36.992Z,7.40
2018-07-15T11:33:05.821Z,7.17
2018-07-15T11:35:34.428Z,7.30
2018-07-15T11:38:03.466Z,6.85
2018-07-15T11:40:32.376Z,7.62
2018-07-15T11:43:01.906Z,6.60
2018-07-15T11:45:31.693Z,6.35
2018-07-15T11:48:00.454Z,7.67
2018-07-15T11:50:29.219Z,9.78
2018-07-15T11:52:58.383Z,10.85
2018-07-15T11:55:27.027Z,9.50
2018-07-15T11:57:55.702Z,7.72
2018-07-15T12:00:24.244Z,7.45
2018-07-15T14:12:01.869Z,4.65
2018-07-15T14:14:30.559Z,3.60
2018-07-15T14:16:59.174Z,5.03
2018-07-15T14:19:27.985Z,4.72
2018-07-15T14:21:56.877Z,5.85
2018-07-15T14:24:25.642Z,5.45
2018-07-15T14:26:55.840Z,3.90
2018-07-15T14:29:24.572Z,2.67
2018-07-15T14:31:53.219Z,3.12
2018-07-15T14:34:21.980Z,3.00
2018-07-15T14:36:50.623Z,3.90
2018-07-15T14:39:19.174Z,7.17
2018-07-15T14:41:47.792Z,4.53
2018-07-15T14:44:16.414Z,3.90
2018-07-15T14:46:45.086Z,3.55
2018-07-15T14:49:13.657Z,2.87
2018-07-15T14:51:42.195Z,3.25
2018-07-15T14:54:10.932Z,3.60
2018-07-15T14:56:44.278Z,3.27
2018-07-15T14:59:13.137Z,3.22
2018-07-15T15:01:42.847Z,3.08
2018-07-15T15:04:11.505Z,2.92
2018-07-15T15:06:40.070Z,2.75
2018-07-15T15:09:09.155Z,2.27
2018-07-15T15:11:37.840Z,2.47
2018-07-15T15:14:07.113Z,2.55
2018-07-15T15:16:35.986Z,3.15
2018-07-15T15:19:05.050Z,2.35
2018-07-15T15:21:33.705Z,2.77
2018-07-15T15:24:02.332Z,2.50
2018-07-15T15:26:31.006Z,4.47
2018-07-15T15:29:00.295Z,2.95
2018-07-15T15:31:28.858Z,2.50
2018-07-15T15:33:57.608Z,2.60
2018-07-15T15:36:26.424Z,3.25
2018-07-15T15:38:54.995Z,3.47
2018-07-15T15:41:23.662Z,4.37
2018-07-15T15:43:52.227Z,4.00
2018-07-15T15:46:20.771Z,4.03
2018-07-15T15:48:49.414Z,3.58
2018-07-15T15:51:18.058Z,3.40
2018-07-15T15:53:46.663Z,3.55
2018-07-15T15:56:15.253Z,4.00
2018-07-15T15:58:43.867Z,3.95
2018-07-15T16:01:12.517Z,3.50
2018-07-15T16:03:41.105Z,4.10
2018-07-15T16:06:09.801Z,3.20
2018-07-15T16:08:38.548Z,3.70
2018-07-15T16:11:07.125Z,3.52
2018-07-15T16:13:35.762Z,3.37
2018-07-15T16:16:04.399Z,3.70
2018-07-15T16:18:33.052Z,3.37
2018-07-15T16:21:01.679Z,3.00
2018-07-15T16:23:30.290Z,2.90
2018-07-15T16:25:59.058Z,3.83
2018-07-15T16:28:27.744Z,4.80
2018-07-15T16:30:56.374Z,2.98
2018-07-15T16:33:24.995Z,2.90
2018-07-15T16:35:53.620Z,3.83
2018-07-15T16:38:22.365Z,3.67
2018-07-15T16:40:51.007Z,3.40
2018-07-15T16:43:19.637Z,2.83
2018-07-15T16:45:48.502Z,3.40
2018-07-15T16:48:17.218Z,3.12
2018-07-15T16:50:46.079Z,3.75
2018-07-15T16:53:14.784Z,2.90
2018-07-15T16:55:43.595Z,3.08
2018-07-15T16:58:12.256Z,2.87
2018-07-15T17:00:40.996Z,3.20
2018-07-15T17:03:10.180Z,2.87
2018-07-15T17:05:38.803Z,3.83
2018-07-15T17:08:07.397Z,3.42
2018-07-15T17:10:36.051Z,3.80
2018-07-15T17:13:04.636Z,3.58
2018-07-15T17:15:33.254Z,3.67
2018-07-15T17:18:01.910Z,3.80
2018-07-15T17:20:30.538Z,2.70
2018-07-15T17:22:59.345Z,2.52
2018-07-15T17:25:28.034Z,2.55
2018-07-15T17:27:56.792Z,2.30
2018-07-15T17:30:25.396Z,2.12
2018-07-15T17:32:54.004Z,2.37
2018-07-15T17:35:22.759Z,2.30
2018-07-15T17:37:51.563Z,2.47
2018-07-15T17:40:20.312Z,4.62
2018-07-15T17:42:49.103Z,2.20
2018-07-15T17:45:17.764Z,3.17
2018-07-15T17:47:46.384Z,2.72
2018-07-15T17:50:14.959Z,2.47
2018-07-15T17:52:43.663Z,3.55
2018-07-15T17:55:12.284Z,2.40
2018-07-15T17:57:40.923Z,5.70
2018-07-15T18:00:16.309Z,3.65
2018-07-15T18:02:44.870Z,5.20
2018-07-15T18:05:13.452Z,2.60
2018-07-15T18:07:42.032Z,8.70
2018-07-15T18:10:10.814Z,20.35
2018-07-15T18:12:39.472Z,9.73
2018-07-15T18:15:08.090Z,31.37
2018-07-15T18:17:36.903Z,26.87
2018-07-15T18:20:05.694Z,11.03
2018-07-15T18:22:34.450Z,3.62
2018-07-15T18:25:03.063Z,5.47
2018-07-15T18:27:31.699Z,3.70
2018-07-15T18:30:00.339Z,2.72
2018-07-15T18:32:54.578Z,7.33
2018-07-15T18:35:23.401Z,6.57
2018-07-15T18:37:52.075Z,3.60
2018-07-15T18:40:22.056Z,5.55
2018-07-15T18:42:50.813Z,6.43
2018-07-15T18:45:19.423Z,10.43
2018-07-15T18:47:48.478Z,3.33
2018-07-15T18:50:22.648Z,3.50
2018-07-15T18:52:52.247Z,3.73
2018-07-15T18:55:21.684Z,3.53
2018-07-15T18:57:50.734Z,7.57
2018-07-15T19:00:19.945Z,5.10
2018-07-15T19:02:49.043Z,2.83
2018-07-15T19:05:18.512Z,3.83
2018-07-15T19:07:48.665Z,6.23
2018-07-15T19:10:17.192Z,4.57
2018-07-15T19:12:46.972Z,9.33
2018-07-15T19:15:15.704Z,4.90
2018-07-15T19:17:44.391Z,7.33
2018-07-15T19:20:12.945Z,5.40
2018-07-15T19:22:42.051Z,5.10
2018-07-15T19:25:10.761Z,9.30
2018-07-15T19:27:43.618Z,4.87
2018-07-15T19:30:13.656Z,9.20
2018-07-15T19:32:42.717Z,7.40
2018-07-15T19:35:11.244Z,7.07
2018-07-15T19:37:39.880Z,3.30
2018-07-15T19:40:08.440Z,4.53
2018-07-15T19:42:37.251Z,7.93
2018-07-15T19:45:07.436Z,3.47
2018-07-15T19:47:36.368Z,4.53
2018-07-15T19:50:05.708Z,4.90
2018-07-15T19:52:34.313Z,3.50
2018-07-15T19:55:03.269Z,4.50
2018-07-15T19:57:31.981Z,3.67
2018-07-15T20:00:03.038Z,5.03
2018-07-15T20:02:33.066Z,4.27
2018-07-15T20:05:01.653Z,3.43
2018-07-15T20:07:32.488Z,5.33
2018-07-15T20:10:01.168Z,4.33
2018-07-15T20:12:29.851Z,3.80
2018-07-15T20:14:58.422Z,5.33
2018-07-15T20:17:27.167Z,6.17
2018-07-15T20:19:55.993Z,4.73
2018-07-15T20:22:24.583Z,4.87
2018-07-15T20:24:53.242Z,3.97
2018-07-15T20:27:22.019Z,4.27
2018-07-15T20:29:52.558Z,5.20
2018-07-15T20:32:21.566Z,6.10
2018-07-15T20:34:50.387Z,4.30
2018-07-15T20:37:20.008Z,5.30
2018-07-15T20:39:49.571Z,3.70
2018-07-15T20:42:19.415Z,10.10
2018-07-15T20:44:47.915Z,11.70
2018-07-15T20:47:16.873Z,4.97
2018-07-15T20:49:45.407Z,5.57
2018-07-15T20:52:15.525Z,6.03
2018-07-15T20:54:44.162Z,6.00
2018-07-15T20:57:12.798Z,6.30
2018-07-15T20:59:41.310Z,4.17
2018-07-15T21:02:12.059Z,4.87
2018-07-15T21:04:40.746Z,5.27
2018-07-15T21:07:13.276Z,5.40
2018-07-15T21:09:46.025Z,5.30
2018-07-15T21:12:17.615Z,4.37
2018-07-15T21:14:47.593Z,3.87
2018-07-15T21:17:19.619Z,4.23
2018-07-15T21:19:48.210Z,4.03
2018-07-15T21:22:17.084Z,4.07
2018-07-15T21:24:45.860Z,4.57
2018-07-15T21:27:15.201Z,4.40
2018-07-15T21:29:46.730Z,3.77
2018-07-15T21:32:15.263Z,4.20
2018-07-15T21:34:44.232Z,4.10
2018-07-15T21:37:13.353Z,4.00
2018-07-15T21:39:42.215Z,5.13
2018-07-15T21:42:13.384Z,4.90
2018-07-15T21:44:44.541Z,4.17
2018-07-15T21:47:13.787Z,4.30
2018-07-15T21:49:42.531Z,3.97
2018-07-15T21:52:12.147Z,4.47
2018-07-15T21:54:40.758Z,4.13
2018-07-15T21:57:10.651Z,4.20
2018-07-15T21:59:39.367Z,3.83
2018-07-15T22:02:07.996Z,4.30
2018-07-15T22:04:36.528Z,3.87
2018-07-15T22:07:16.230Z,4.07
2018-07-15T22:09:56.622Z,3.87
2018-07-15T22:12:25.219Z,3.70
2018-07-15T22:14:53.814Z,3.50
2018-07-15T22:17:23.299Z,4.20
2018-07-15T22:19:51.791Z,3.77
2018-07-15T22:22:20.400Z,3.67
2018-07-15T22:24:48.972Z,3.40
2018-07-15T22:27:17.634Z,3.77
2018-07-15T22:29:46.308Z,3.13
2018-07-15T22:32:14.882Z,3.90
2018-07-15T22:34:43.551Z,3.20
2018-07-15T22:37:12.165Z,3.80
2018-07-15T22:39:40.714Z,3.70
2018-07-15T22:42:09.303Z,3.40
2018-07-15T22:44:37.868Z,4.43
2018-07-15T22:47:06.534Z,3.47
2018-07-15T22:49:35.187Z,3.50
2018-07-15T22:52:03.724Z,4.23
2018-07-15T22:54:32.520Z,3.60
2018-07-15T22:57:01.020Z,4.20
2018-07-15T22:59:29.542Z,3.80
2018-07-15T23:01:58.179Z,4.13
2018-07-15T23:05:57.366Z,3.60
2018-07-15T23:08:27.183Z,4.10
2018-07-15T23:10:55.696Z,3.80
2018-07-15T23:13:24.410Z,4.00
2018-07-15T23:15:53.155Z,4.10
2018-07-15T23:18:22.103Z,3.83
2018-07-15T23:20:51.283Z,3.40
2018-07-15T23:23:19.869Z,4.03
2018-07-15T23:25:48.557Z,3.77
2018-07-15T23:28:17.965Z,3.80
2018-07-15T23:30:46.841Z,3.67
2018-07-15T23:33:15.477Z,3.40
2018-07-15T23:35:44.112Z,3.90
2018-07-15T23:38:12.771Z,3.50
2018-07-15T23:40:41.283Z,3.50
2018-07-15T23:43:09.958Z,3.50
2018-07-15T23:45:38.642Z,4.00
2018-07-15T23:48:07.209Z,4.07
2018-07-15T23:50:35.904Z,3.63
2018-07-15T23:53:04.593Z,3.37
2018-07-15T23:55:33.253Z,3.50
2018-07-15T23:58:01.818Z,3.87
